Time;durP1;ratioP1;P1;durP2;ratioP2;P2;SDS_P1;SDS_P2;PMS_P1;PMS_P2;Temp;Humidity;BMP_temperature;BMP_pressure;BME280_temperature;BME280_humidity;BME280_pressure;Samples;Min_cycle;Max_cycle;Signal;HPM_P1;HPM_P2
2021/12/09 00:01:48;;;;;;;21.97;11.60;;;;;;;;;;5136523;27;20555;-72
2021/12/09 00:04:25;;;;;;;23.83;10.87;;;;;;;;;;5136703;27;20268;-72
2021/12/09 00:06:54;;;;;;;23.60;12.03;;;;;;;;;;5136622;27;20185;-72
2021/12/09 00:09:21;;;;;;;20.37;10.80;;;;;;;;;;5136465;27;20208;-72
2021/12/09 00:11:50;;;;;;;20.70;10.40;;;;;;;;;;5136420;27;20229;-72
2021/12/09 00:14:24;;;;;;;22.90;9.93;;;;;;;;;;5136667;27;20221;-72
2021/12/09 00:16:56;;;;;;;20.63;9.93;;;;;;;;;;5136639;27;20223;-72
2021/12/09 00:19:24;;;;;;;21.73;10.90;;;;;;;;;;5134940;27;20331;-72
2021/12/09 00:21:52;;;;;;;23.10;11.00;;;;;;;;;;5136286;27;20201;-72
2021/12/09 00:24:19;;;;;;;23.83;11.17;;;;;;;;;;5136436;27;20221;-72
2021/12/09 00:26:47;;;;;;;18.17;9.60;;;;;;;;;;5136318;27;20197;-72
2021/12/09 00:29:16;;;;;;;29.67;13.17;;;;;;;;;;5136090;27;20186;-72
2021/12/09 00:31:44;;;;;;;20.90;11.27;;;;;;;;;;5136220;27;20197;-72
2021/12/09 00:34:12;;;;;;;24.40;11.37;;;;;;;;;;5136188;27;20201;-72
2021/12/09 00:36:44;;;;;;;24.10;12.10;;;;;;;;;;5136047;27;20194;-72
2021/12/09 00:39:12;;;;;;;21.23;11.73;;;;;;;;;;5135875;27;20252;-72
2021/12/09 00:41:40;;;;;;;22.00;11.40;;;;;;;;;;5135804;27;20197;-72
2021/12/09 00:44:09;;;;;;;21.07;11.40;;;;;;;;;;5136015;27;20250;-72
2021/12/09 00:46:38;;;;;;;24.20;12.30;;;;;;;;;;5135791;27;20571;-72
2021/12/09 00:49:06;;;;;;;22.90;12.17;;;;;;;;;;5135882;27;20201;-72
2021/12/09 00:51:33;;;;;;;25.53;11.77;;;;;;;;;;5134859;27;20234;-72
2021/12/09 00:54:01;;;;;;;25.63;12.17;;;;;;;;;;5135746;27;20211;-72
2021/12/09 00:56:28;;;;;;;27.77;12.27;;;;;;;;;;5135800;27;20197;-72
2021/12/09 00:58:55;;;;;;;22.53;11.37;;;;;;;;;;5134585;27;20201;-72
2021/12/09 01:01:24;;;;;;;28.30;13.47;;;;;;;;;;5135391;27;20208;-72
2021/12/09 01:03:52;;;;;;;19.53;9.83;;;;;;;;;;5135478;27;20208;-72
2021/12/09 01:06:19;;;;;;;31.70;12.97;;;;;;;;;;5135469;27;20193;-72
2021/12/09 01:08:47;;;;;;;27.90;12.83;;;;;;;;;;5135565;27;20197;-72
2021/12/09 01:11:14;;;;;;;24.57;12.03;;;;;;;;;;5135026;27;20620;-72
2021/12/09 01:13:42;;;;;;;23.33;11.40;;;;;;;;;;5134142;27;20190;-72
2021/12/09 01:16:11;;;;;;;22.73;11.37;;;;;;;;;;5135328;27;20204;-72
2021/12/09 01:18:39;;;;;;;32.37;13.83;;;;;;;;;;5134036;27;20648;-72
2021/12/09 01:21:08;;;;;;;27.83;13.27;;;;;;;;;;5134875;27;20221;-72
2021/12/09 01:23:36;;;;;;;35.63;14.13;;;;;;;;;;5135279;27;20232;-72
2021/12/09 01:26:06;;;;;;;30.10;12.63;;;;;;;;;;5135007;27;20197;-72
2021/12/09 01:28:53;;;;;;;32.93;13.60;;;;;;;;;;5133858;27;20601;-72
2021/12/09 01:31:31;;;;;;;27.73;12.03;;;;;;;;;;5134913;27;20189;-72
2021/12/09 01:34:03;;;;;;;27.67;12.60;;;;;;;;;;5135175;27;20219;-72
2021/12/09 01:36:32;;;;;;;32.40;13.70;;;;;;;;;;5135061;27;20230;-72
2021/12/09 01:39:01;;;;;;;28.87;13.13;;;;;;;;;;5133651;27;20205;-72
2021/12/09 01:41:29;;;;;;;27.17;13.47;;;;;;;;;;5134892;27;20208;-72
2021/12/09 01:43:56;;;;;;;31.23;14.70;;;;;;;;;;5133237;27;20198;-72
2021/12/09 01:46:23;;;;;;;27.23;13.77;;;;;;;;;;5134678;27;20262;-72
2021/12/09 01:48:52;;;;;;;28.83;13.67;;;;;;;;;;5134589;27;20200;-72
2021/12/09 01:51:20;;;;;;;27.70;13.63;;;;;;;;;;5134386;27;20652;-73
2021/12/09 01:53:48;;;;;;;27.17;13.03;;;;;;;;;;5134501;27;20207;-72
2021/12/09 01:56:21;;;;;;;22.03;10.57;;;;;;;;;;5134675;27;20227;-73
2021/12/09 01:58:54;;;;;;;22.63;13.00;;;;;;;;;;5134462;27;20192;-72
2021/12/09 02:01:23;;;;;;;22.93;12.20;;;;;;;;;;5134282;27;20676;-72
2021/12/09 02:03:52;;;;;;;21.20;10.60;;;;;;;;;;5134319;27;20709;-72
2021/12/09 02:06:20;;;;;;;24.70;11.93;;;;;;;;;;5134303;27;20557;-72
2021/12/09 02:08:48;;;;;;;33.93;14.27;;;;;;;;;;5134509;27;20289;-72
2021/12/09 02:11:16;;;;;;;33.07;16.67;;;;;;;;;;5132500;27;20204;-72
2021/12/09 02:13:44;;;;;;;25.13;12.77;;;;;;;;;;5134299;27;20231;-71
2021/12/09 02:16:13;;;;;;;21.33;11.60;;;;;;;;;;5134062;27;20236;-72
2021/12/09 02:18:41;;;;;;;29.60;13.83;;;;;;;;;;5134129;27;20274;-72
2021/12/09 02:21:08;;;;;;;24.27;11.67;;;;;;;;;;5133722;27;20301;-72
2021/12/09 02:23:36;;;;;;;27.47;13.10;;;;;;;;;;5134143;27;20204;-72
2021/12/09 02:26:04;;;;;;;24.60;12.60;;;;;;;;;;5134088;27;20235;-72
2021/12/09 02:28:32;;;;;;;22.40;11.93;;;;;;;;;;5133909;27;20627;-72
2021/12/09 02:31:00;;;;;;;19.67;11.37;;;;;;;;;;5133731;27;20197;-72
2021/12/09 02:33:27;;;;;;;18.97;11.10;;;;;;;;;;5133965;27;20197;-72
2021/12/09 02:35:55;;;;;;;27.27;13.37;;;;;;;;;;5133937;27;20194;-72
2021/12/09 02:38:22;;;;;;;20.60;11.27;;;;;;;;;;5134014;27;20291;-72
2021/12/09 02:40:50;;;;;;;21.00;11.73;;;;;;;;;;5133700;27;20364;-72
2021/12/09 02:43:28;;;;;;;23.70;11.13;;;;;;;;;;5133755;27;20193;-72
2021/12/09 02:45:57;;;;;;;22.63;11.67;;;;;;;;;;5133922;27;20189;-72
2021/12/09 02:48:24;;;;;;;21.30;11.57;;;;;;;;;;5133892;27;20283;-73
2021/12/09 02:50:52;;;;;;;21.57;11.57;;;;;;;;;;5133704;27;20250;-72
2021/12/09 02:53:20;;;;;;;24.03;12.77;;;;;;;;;;5133550;27;20219;-72
2021/12/09 02:55:47;;;;;;;24.33;12.73;;;;;;;;;;5133764;27;20204;-72
2021/12/09 02:58:14;;;;;;;26.70;12.80;;;;;;;;;;5133730;27;20274;-72
2021/12/09 03:00:56;;;;;;;30.27;14.67;;;;;;;;;;5133588;27;20220;-72
2021/12/09 03:03:24;;;;;;;29.40;13.77;;;;;;;;;;5133579;27;20620;-72
2021/12/09 03:05:56;;;;;;;26.13;13.63;;;;;;;;;;5133481;27;20204;-72
2021/12/09 03:08:34;;;;;;;32.30;13.90;;;;;;;;;;5133762;27;20191;-72
2021/12/09 03:11:05;;;;;;;27.20;13.77;;;;;;;;;;5133291;27;20189;-72
2021/12/09 03:13:32;;;;;;;35.90;15.17;;;;;;;;;;5133443;27;20225;-72
2021/12/09 03:16:00;;;;;;;25.40;13.37;;;;;;;;;;5132454;28;20728;-72
2021/12/09 03:18:27;;;;;;;30.33;14.20;;;;;;;;;;5132569;28;20648;-72
2021/12/09 03:20:55;;;;;;;31.53;15.07;;;;;;;;;;5133557;27;20231;-72
2021/12/09 03:23:23;;;;;;;27.23;13.43;;;;;;;;;;5137055;27;20193;-72
2021/12/09 03:25:50;;;;;;;26.63;13.10;;;;;;;;;;5137427;27;20197;-72
2021/12/09 03:28:18;;;;;;;27.50;13.33;;;;;;;;;;5137345;27;20194;-72
2021/12/09 03:30:46;;;;;;;25.97;13.00;;;;;;;;;;5137515;27;20198;-72
2021/12/09 03:33:13;;;;;;;29.17;13.23;;;;;;;;;;5137219;27;20197;-72
2021/12/09 03:35:40;;;;;;;28.30;14.27;;;;;;;;;;5137224;27;20289;-72
2021/12/09 03:38:07;;;;;;;29.70;14.70;;;;;;;;;;5137262;27;20204;-72
2021/12/09 03:40:35;;;;;;;33.40;16.77;;;;;;;;;;5136967;27;20217;-72
2021/12/09 03:43:02;;;;;;;26.67;13.83;;;;;;;;;;5137070;27;20189;-71
2021/12/09 03:45:29;;;;;;;28.23;13.63;;;;;;;;;;5137101;27;20682;-72
2021/12/09 03:47:57;;;;;;;31.70;13.93;;;;;;;;;;5137182;27;20668;-72
2021/12/09 03:50:24;;;;;;;31.80;13.90;;;;;;;;;;5135782;27;20231;-72
2021/12/09 03:52:51;;;;;;;26.77;13.37;;;;;;;;;;5136948;27;20193;-72
2021/12/09 03:55:19;;;;;;;24.80;13.70;;;;;;;;;;5136812;27;20198;-72
2021/12/09 03:57:46;;;;;;;31.40;14.63;;;;;;;;;;5136865;27;20197;-72
2021/12/09 04:00:14;;;;;;;30.03;13.70;;;;;;;;;;5136891;27;20315;-72
2021/12/09 04:02:41;;;;;;;31.30;14.17;;;;;;;;;;5136773;27;20197;-72
2021/12/09 04:05:09;;;;;;;24.60;13.83;;;;;;;;;;5136550;27;20642;-72
2021/12/09 04:07:36;;;;;;;25.70;14.43;;;;;;;;;;5136705;27;20197;-72
2021/12/09 04:10:06;;;;;;;27.20;13.63;;;;;;;;;;5136459;27;20200;-72
2021/12/09 04:12:34;;;;;;;26.67;14.50;;;;;;;;;;5136507;27;20229;-72
2021/12/09 04:15:04;;;;;;;24.47;13.07;;;;;;;;;;5136506;27;20328;-71
2021/12/09 04:17:32;;;;;;;25.77;13.40;;;;;;;;;;5136519;27;20204;-72
2021/12/09 04:20:00;;;;;;;25.67;13.20;;;;;;;;;;5136522;27;20201;-72
2021/12/09 04:22:27;;;;;;;30.63;12.93;;;;;;;;;;5136377;27;20201;-72
2021/12/09 04:24:55;;;;;;;24.27;12.47;;;;;;;;;;5136564;27;20201;-72
2021/12/09 04:27:23;;;;;;;20.17;11.77;;;;;;;;;;5136143;27;20217;-72
2021/12/09 04:29:50;;;;;;;22.03;11.47;;;;;;;;;;5135047;27;20201;-72
2021/12/09 04:32:18;;;;;;;26.13;13.33;;;;;;;;;;5135988;27;20205;-72
2021/12/09 04:34:46;;;;;;;26.80;13.73;;;;;;;;;;5136129;27;20221;-72
2021/12/09 04:37:14;;;;;;;28.10;13.50;;;;;;;;;;5135067;27;20194;-72
2021/12/09 04:39:42;;;;;;;26.00;13.57;;;;;;;;;;5136004;27;20193;-72
2021/12/09 04:42:09;;;;;;;24.23;13.73;;;;;;;;;;5135932;27;20217;-72
2021/12/09 04:44:36;;;;;;;28.37;13.50;;;;;;;;;;5134687;27;20197;-71
2021/12/09 04:47:04;;;;;;;28.50;14.60;;;;;;;;;;5135739;27;20594;-72
2021/12/09 04:49:31;;;;;;;27.30;13.97;;;;;;;;;;5136096;27;20228;-72
2021/12/09 04:52:00;;;;;;;23.90;12.70;;;;;;;;;;5134642;27;20193;-71
2021/12/09 04:54:27;;;;;;;27.07;13.20;;;;;;;;;;5134841;27;20644;-72
2021/12/09 04:56:54;;;;;;;26.93;13.30;;;;;;;;;;5135579;27;20668;-72
2021/12/09 04:59:21;;;;;;;22.07;11.97;;;;;;;;;;5135546;27;20205;-72
2021/12/09 05:01:50;;;;;;;24.03;12.50;;;;;;;;;;5135386;27;20551;-73
2021/12/09 05:04:18;;;;;;;26.33;11.97;;;;;;;;;;5134198;27;20204;-72
2021/12/09 05:06:45;;;;;;;29.90;15.33;;;;;;;;;;5126275;27;20237;-72
2021/12/09 05:09:17;;;;;;;36.10;15.90;;;;;;;;;;5127909;27;20217;-72
2021/12/09 05:14:15;;;;;;;34.03;16.13;;;;;;;;;;5125733;27;20214;-69
2021/12/09 05:16:43;;;;;;;29.40;14.57;;;;;;;;;;5131673;27;20232;-72
2021/12/09 05:19:11;;;;;;;32.90;13.07;;;;;;;;;;5094925;27;20676;-73
2021/12/09 05:21:39;;;;;;;29.23;14.40;;;;;;;;;;5133622;27;20236;-73
2021/12/09 05:24:09;;;;;;;34.07;16.70;;;;;;;;;;5134441;27;20236;-72
2021/12/09 05:26:48;;;;;;;28.43;15.20;;;;;;;;;;5133099;27;20266;-73
2021/12/09 05:29:17;;;;;;;31.90;14.87;;;;;;;;;;5129900;27;20209;-71
2021/12/09 05:34:26;;;;;;;23.83;13.23;;;;;;;;;;5112223;28;20225;-73
2021/12/09 05:36:54;;;;;;;30.53;14.90;;;;;;;;;;5113603;27;20762;-68
2021/12/09 05:39:21;;;;;;;31.23;15.53;;;;;;;;;;5113821;28;20321;-69
2021/12/09 05:41:49;;;;;;;31.23;15.83;;;;;;;;;;5112922;27;20329;-71
2021/12/09 05:44:16;;;;;;;27.80;15.60;;;;;;;;;;5099121;28;20576;-73
2021/12/09 05:46:45;;;;;;;31.37;15.97;;;;;;;;;;5133938;27;20221;-70
2021/12/09 05:49:14;;;;;;;30.20;15.33;;;;;;;;;;5133818;27;20225;-72
2021/12/09 05:51:42;;;;;;;34.10;16.00;;;;;;;;;;5132322;27;20252;-73
2021/12/09 05:54:11;;;;;;;29.17;14.67;;;;;;;;;;5131706;27;20213;-74
2021/12/09 05:56:38;;;;;;;31.73;16.97;;;;;;;;;;5130717;27;20230;-73
2021/12/09 05:59:07;;;;;;;35.67;16.60;;;;;;;;;;5124621;27;20214;-68
2021/12/09 06:01:35;;;;;;;33.23;15.87;;;;;;;;;;5122638;27;20225;-70
2021/12/09 06:04:03;;;;;;;32.93;15.03;;;;;;;;;;5123790;27;20220;-68
2021/12/09 06:06:31;;;;;;;41.70;17.70;;;;;;;;;;5122275;27;20232;-67
2021/12/09 06:08:58;;;;;;;31.80;15.73;;;;;;;;;;5122075;27;20220;-70
2021/12/09 06:11:27;;;;;;;30.83;16.00;;;;;;;;;;5121413;27;20598;-71
2021/12/09 06:13:54;;;;;;;37.17;18.03;;;;;;;;;;5122868;27;20221;-68
2021/12/09 06:16:22;;;;;;;38.80;17.63;;;;;;;;;;5123977;27;20569;-69
2021/12/09 06:18:49;;;;;;;54.17;23.20;;;;;;;;;;5122195;27;20241;-70
2021/12/09 06:21:19;;;;;;;38.77;18.63;;;;;;;;;;5123339;27;20241;-70
2021/12/09 06:23:47;;;;;;;32.47;16.83;;;;;;;;;;5123815;27;20240;-74
2021/12/09 06:26:14;;;;;;;34.93;16.97;;;;;;;;;;5119672;27;20234;-73
2021/12/09 06:28:42;;;;;;;35.33;17.10;;;;;;;;;;5121402;27;20226;-73
2021/12/09 06:31:10;;;;;;;35.30;17.30;;;;;;;;;;5117607;27;20221;-74
2021/12/09 06:33:38;;;;;;;30.57;16.03;;;;;;;;;;5112698;28;20229;-73
2021/12/09 06:36:06;;;;;;;32.60;16.13;;;;;;;;;;5112630;27;20218;-74
2021/12/09 06:38:35;;;;;;;33.53;16.60;;;;;;;;;;5112652;28;20616;-75
2021/12/09 06:41:04;;;;;;;40.23;17.33;;;;;;;;;;5112478;27;20233;-74
2021/12/09 06:43:31;;;;;;;26.57;13.47;;;;;;;;;;5112626;28;20221;-74
2021/12/09 06:45:59;;;;;;;32.07;15.57;;;;;;;;;;5117307;28;20560;-72
2021/12/09 06:48:26;;;;;;;41.63;20.53;;;;;;;;;;5129516;27;20213;-74
2021/12/09 06:50:54;;;;;;;32.17;14.27;;;;;;;;;;5132548;27;20221;-73
2021/12/09 06:53:21;;;;;;;27.33;13.43;;;;;;;;;;5132875;27;20223;-69
2021/12/09 06:55:49;;;;;;;30.47;14.27;;;;;;;;;;5132953;27;20619;-73
2021/12/09 06:58:18;;;;;;;30.37;15.60;;;;;;;;;;5129345;27;20312;-73
2021/12/09 07:00:46;;;;;;;29.33;14.37;;;;;;;;;;5126316;27;20224;-73
2021/12/09 07:03:20;;;;;;;29.43;14.97;;;;;;;;;;5126315;27;20209;-73
2021/12/09 07:05:49;;;;;;;30.63;15.20;;;;;;;;;;5125508;27;20266;-74
2021/12/09 07:08:17;;;;;;;27.03;14.00;;;;;;;;;;5124455;27;20199;-72
2021/12/09 07:10:45;;;;;;;31.57;15.27;;;;;;;;;;5126032;27;20282;-74
2021/12/09 07:13:13;;;;;;;30.50;15.07;;;;;;;;;;5124626;27;20229;-73
2021/12/09 07:15:41;;;;;;;32.60;16.00;;;;;;;;;;5126095;27;20205;-70
2021/12/09 07:18:08;;;;;;;33.43;16.90;;;;;;;;;;5126721;27;20194;-74
2021/12/09 07:20:36;;;;;;;33.90;17.77;;;;;;;;;;5126727;27;20204;-71
2021/12/09 07:23:03;;;;;;;33.70;18.67;;;;;;;;;;5125797;27;20197;-74
2021/12/09 07:25:30;;;;;;;30.20;14.43;;;;;;;;;;5126797;27;20189;-73
2021/12/09 07:27:58;;;;;;;28.13;15.60;;;;;;;;;;5124639;27;20194;-75
2021/12/09 07:30:28;;;;;;;27.53;13.73;;;;;;;;;;5115126;27;20192;-76
2021/12/09 07:32:56;;;;;;;36.63;18.60;;;;;;;;;;5124906;27;20202;-75
2021/12/09 07:35:26;;;;;;;30.73;15.07;;;;;;;;;;5125580;27;20196;-75
2021/12/09 07:37:53;;;;;;;158.60;65.07;;;;;;;;;;5126974;27;20185;-75
2021/12/09 07:40:20;;;;;;;818.40;395.83;;;;;;;;;;5125047;27;20247;-73
2021/12/09 07:42:48;;;;;;;53.67;31.87;;;;;;;;;;5123467;27;20221;-69
2021/12/09 07:45:16;;;;;;;38.47;21.23;;;;;;;;;;5124083;27;20197;-72
2021/12/09 07:47:44;;;;;;;33.17;16.47;;;;;;;;;;5128274;27;20217;-73
2021/12/09 07:50:15;;;;;;;31.27;17.07;;;;;;;;;;5127417;27;20218;-73
2021/12/09 07:52:43;;;;;;;35.93;16.43;;;;;;;;;;5127512;27;20205;-74
2021/12/09 07:55:11;;;;;;;30.70;16.20;;;;;;;;;;5128432;27;20603;-73
2021/12/09 07:57:39;;;;;;;25.80;14.70;;;;;;;;;;5126066;27;20242;-74
2021/12/09 08:00:12;;;;;;;26.83;14.13;;;;;;;;;;5127343;27;20631;-74
2021/12/09 08:02:46;;;;;;;27.63;13.67;;;;;;;;;;5126190;27;20210;-72
2021/12/09 08:05:15;;;;;;;34.40;15.67;;;;;;;;;;5127759;27;20212;-69
2021/12/09 08:07:42;;;;;;;45.90;18.93;;;;;;;;;;5124789;27;20269;-73
2021/12/09 08:10:13;;;;;;;72.30;28.90;;;;;;;;;;5120839;27;20198;-73
2021/12/09 08:12:41;;;;;;;40.17;16.77;;;;;;;;;;5126939;27;20251;-75
2021/12/09 08:15:25;;;;;;;51.13;24.33;;;;;;;;;;5124963;27;20238;-72
2021/12/09 08:18:02;;;;;;;41.07;18.23;;;;;;;;;;5122751;27;20236;-72
2021/12/09 08:20:33;;;;;;;40.20;17.80;;;;;;;;;;5124170;27;20235;-70
2021/12/09 08:23:01;;;;;;;113.33;49.20;;;;;;;;;;5126171;27;20295;-71
2021/12/09 08:25:28;;;;;;;59.50;27.80;;;;;;;;;;5118093;27;20619;-73
2021/12/09 08:27:56;;;;;;;63.03;29.33;;;;;;;;;;5124170;27;20213;-67
2021/12/09 08:30:25;;;;;;;60.20;26.37;;;;;;;;;;5125220;27;20193;-68
2021/12/09 08:33:13;;;;;;;52.23;20.93;;;;;;;;;;5125154;27;20250;-73
2021/12/09 08:35:40;;;;;;;72.73;29.10;;;;;;;;;;5125767;27;20197;-71
2021/12/09 08:38:08;;;;;;;48.17;20.93;;;;;;;;;;5124584;27;20273;-73
2021/12/09 08:40:37;;;;;;;111.77;52.47;;;;;;;;;;5125154;27;20201;-73
2021/12/09 08:43:04;;;;;;;87.73;35.70;;;;;;;;;;5123776;27;20575;-74
2021/12/09 08:45:31;;;;;;;130.10;53.93;;;;;;;;;;5125087;27;20211;-73
2021/12/09 08:47:59;;;;;;;71.47;29.90;;;;;;;;;;5127807;27;20224;-72
2021/12/09 08:50:32;;;;;;;65.33;29.40;;;;;;;;;;5122065;27;20567;-73
2021/12/09 08:53:03;;;;;;;69.03;28.80;;;;;;;;;;5124076;27;20186;-73
2021/12/09 08:55:31;;;;;;;119.90;39.17;;;;;;;;;;5123312;27;20194;-72
2021/12/09 08:57:58;;;;;;;133.50;45.07;;;;;;;;;;5131366;27;20212;-73
2021/12/09 09:00:26;;;;;;;108.43;39.90;;;;;;;;;;5135064;27;20193;-73
2021/12/09 09:02:57;;;;;;;266.17;89.20;;;;;;;;;;5126045;27;20213;-73
2021/12/09 09:05:25;;;;;;;59.90;23.10;;;;;;;;;;5135357;27;20219;-73
2021/12/09 09:07:52;;;;;;;194.30;60.87;;;;;;;;;;5133572;27;20216;-73
2021/12/09 09:10:22;;;;;;;160.50;53.50;;;;;;;;;;5134701;27;20201;-73
2021/12/09 09:12:50;;;;;;;185.70;67.20;;;;;;;;;;5133614;27;20344;-73
2021/12/09 09:15:20;;;;;;;98.30;38.73;;;;;;;;;;5134678;27;20202;-72
2021/12/09 09:17:48;;;;;;;143.87;53.27;;;;;;;;;;5131226;27;20570;-73
2021/12/09 09:20:18;;;;;;;218.40;73.17;;;;;;;;;;5132651;27;20201;-73
2021/12/09 09:22:46;;;;;;;216.93;71.50;;;;;;;;;;5135118;27;20247;-73
2021/12/09 09:25:19;;;;;;;99.20;36.40;;;;;;;;;;5134836;27;20201;-73
2021/12/09 09:27:48;;;;;;;76.03;31.10;;;;;;;;;;5134449;27;20211;-73
2021/12/09 09:30:18;;;;;;;81.17;35.20;;;;;;;;;;5129711;27;20190;-72
2021/12/09 09:32:47;;;;;;;80.47;33.13;;;;;;;;;;5124463;27;20262;-73
2021/12/09 09:35:15;;;;;;;64.70;26.53;;;;;;;;;;5114733;27;20671;-74
2021/12/09 09:37:44;;;;;;;84.17;34.13;;;;;;;;;;5122332;27;20235;-73
2021/12/09 09:40:15;;;;;;;69.50;28.53;;;;;;;;;;5121424;27;20213;-74
2021/12/09 09:45:12;;;;;;;94.20;39.07;;;;;;;;;;5123024;27;20699;-68
2021/12/09 09:47:40;;;;;;;95.90;41.97;;;;;;;;;;5121258;27;20228;-73
2021/12/09 09:50:10;;;;;;;74.30;33.83;;;;;;;;;;5121193;27;20698;-73
2021/12/09 09:52:38;;;;;;;67.23;28.40;;;;;;;;;;5113685;28;20332;-71
2021/12/09 09:55:09;;;;;;;83.43;32.87;;;;;;;;;;5113096;28;20222;-73
2021/12/09 09:57:37;;;;;;;93.73;34.97;;;;;;;;;;5113448;28;20592;-75
2021/12/09 10:00:07;;;;;;;86.37;32.83;;;;;;;;;;5132603;27;20316;-72
2021/12/09 10:02:35;;;;;;;159.57;65.23;;;;;;;;;;5134751;27;20216;-72
2021/12/09 10:05:06;;;;;;;238.93;88.57;;;;;;;;;;5134208;27;20674;-72
2021/12/09 10:07:35;;;;;;;225.40;84.37;;;;;;;;;;5134759;27;20213;-72
2021/12/09 10:10:05;;;;;;;246.27;88.97;;;;;;;;;;5130583;27;20190;-72
2021/12/09 10:12:32;;;;;;;213.57;83.87;;;;;;;;;;5120139;27;20263;-71
2021/12/09 10:15:00;;;;;;;342.93;118.83;;;;;;;;;;5123327;27;20193;-71
2021/12/09 10:17:28;;;;;;;96.57;39.90;;;;;;;;;;5122690;27;20194;-72
2021/12/09 10:20:11;;;;;;;146.27;62.90;;;;;;;;;;5123062;27;20640;-71
2021/12/09 10:22:39;;;;;;;102.40;43.83;;;;;;;;;;5120229;27;20214;-72
2021/12/09 10:25:19;;;;;;;122.23;54.33;;;;;;;;;;5122054;27;20204;-73
2021/12/09 10:28:00;;;;;;;100.40;42.37;;;;;;;;;;5113667;28;20197;-70
2021/12/09 10:30:29;;;;;;;93.90;44.73;;;;;;;;;;5112884;28;20194;-70
2021/12/09 10:33:01;;;;;;;64.50;28.37;;;;;;;;;;5113497;28;20201;-69
2021/12/09 10:35:29;;;;;;;59.07;26.47;;;;;;;;;;5113527;28;20658;-71
2021/12/09 10:37:56;;;;;;;66.67;28.77;;;;;;;;;;5117312;27;20248;-71
2021/12/09 10:40:26;;;;;;;63.17;27.57;;;;;;;;;;5112122;28;20202;-70
2021/12/09 10:42:56;;;;;;;75.70;33.70;;;;;;;;;;5113130;28;20680;-70
2021/12/09 10:45:29;;;;;;;88.97;40.70;;;;;;;;;;5115614;28;20190;-69
2021/12/09 10:48:10;;;;;;;46.97;22.33;;;;;;;;;;5122724;27;20190;-69
2021/12/09 10:51:04;;;;;;;50.50;22.43;;;;;;;;;;5122789;27;20231;-69
2021/12/09 10:53:35;;;;;;;66.80;29.67;;;;;;;;;;5122644;27;20212;-70
2021/12/09 10:56:10;;;;;;;72.80;33.93;;;;;;;;;;5123088;28;20195;-70
2021/12/09 10:58:41;;;;;;;64.00;27.77;;;;;;;;;;5122781;28;20243;-69
2021/12/09 11:01:14;;;;;;;73.17;31.17;;;;;;;;;;5121269;28;20182;-70
2021/12/09 11:03:50;;;;;;;68.63;30.27;;;;;;;;;;5121058;27;20218;-70
2021/12/09 11:06:20;;;;;;;59.10;26.63;;;;;;;;;;5121752;27;20234;-70
2021/12/09 11:08:50;;;;;;;60.87;28.30;;;;;;;;;;5120934;28;20182;-70
2021/12/09 11:11:26;;;;;;;89.77;35.83;;;;;;;;;;5121346;27;20190;-70
2021/12/09 11:13:58;;;;;;;95.30;42.50;;;;;;;;;;5121887;28;20193;-70
2021/12/09 11:16:32;;;;;;;103.13;46.03;;;;;;;;;;5120901;27;20694;-70
2021/12/09 11:19:13;;;;;;;94.63;45.30;;;;;;;;;;5120802;27;20181;-69
2021/12/09 11:21:58;;;;;;;87.60;39.73;;;;;;;;;;5122857;28;20186;-69
2021/12/09 11:24:31;;;;;;;81.93;41.53;;;;;;;;;;5121807;28;20673;-69
2021/12/09 11:27:04;;;;;;;84.83;41.10;;;;;;;;;;5115996;28;20194;-70
2021/12/09 11:29:39;;;;;;;86.83;38.43;;;;;;;;;;5123436;27;20213;-70
2021/12/09 11:35:04;;;;;;;98.20;39.97;;;;;;;;;;5122528;28;20260;-71
2021/12/09 11:37:39;;;;;;;103.50;44.77;;;;;;;;;;5106274;28;20200;-70
2021/12/09 11:40:20;;;;;;;142.90;53.90;;;;;;;;;;5123580;28;20258;-70
2021/12/09 11:42:56;;;;;;;367.60;90.03;;;;;;;;;;5124400;27;20240;-70
2021/12/09 11:45:30;;;;;;;390.40;104.87;;;;;;;;;;5136623;27;20240;-70
2021/12/09 11:47:58;;;;;;;247.80;73.67;;;;;;;;;;5136997;27;20205;-70
2021/12/09 11:50:28;;;;;;;283.67;86.90;;;;;;;;;;5135667;27;20597;-70
2021/12/09 11:52:57;;;;;;;227.33;71.37;;;;;;;;;;5136649;27;20671;-70
2021/12/09 11:55:32;;;;;;;85.63;34.33;;;;;;;;;;5136483;27;20205;-70
2021/12/09 11:58:08;;;;;;;76.00;30.53;;;;;;;;;;5135377;27;20648;-70
2021/12/09 12:07:30;;;;;;;80.97;30.97;;;;;;;;;;5120055;27;20227;-71
2021/12/09 12:12:31;;;;;;;60.33;26.93;;;;;;;;;;5119717;27;20251;-70
2021/12/09 12:18:27;;;;;;;38.33;18.73;;;;;;;;;;5125424;27;20738;-71
2021/12/09 12:32:55;;;;;;;98.60;40.70;;;;;;;;;;5124015;27;20255;-69
2021/12/09 12:38:04;;;;;;;84.20;35.20;;;;;;;;;;5122364;27;20296;-68
2021/12/09 12:40:34;;;;;;;339.40;117.57;;;;;;;;;;5122014;27;20213;-70
2021/12/09 12:43:09;;;;;;;188.77;78.60;;;;;;;;;;5114919;27;20576;-70
2021/12/09 12:52:06;;;;;;;54.60;25.97;;;;;;;;;;5126196;27;20655;-71
2021/12/09 12:56:58;;;;;;;39.93;20.10;;;;;;;;;;5125887;27;20193;-70
2021/12/09 12:59:33;;;;;;;44.40;20.63;;;;;;;;;;5124128;27;20200;-69
2021/12/09 13:03:01;;;;;;;49.30;21.67;;;;;;;;;;5123329;27;20276;-69
2021/12/09 13:10:30;;;;;;;184.27;77.90;;;;;;;;;;5124868;27;20245;-70
2021/12/09 13:13:08;;;;;;;91.57;40.93;;;;;;;;;;5124771;27;20244;-70
2021/12/09 13:16:07;;;;;;;50.87;25.67;;;;;;;;;;5154367;22;20189;-78
2021/12/09 13:21:45;;;;;;;77.97;32.13;;;;;;;;;;5028746;28;20208;-64
2021/12/09 13:24:24;;;;;;;64.07;30.80;;;;;;;;;;5026184;28;20248;-65
2021/12/09 13:46:58;;;;;;;54.57;27.60;;;;;;;;;;5032534;28;20644;-65
2021/12/09 13:49:49;;;;;;;46.80;23.57;;;;;;;;;;5031594;28;20720;-62
2021/12/09 13:55:25;;;;;;;106.73;41.90;;;;;;;;;;5032265;28;20203;-63
2021/12/09 13:57:58;;;;;;;101.43;39.20;;;;;;;;;;5032262;28;20211;-65
2021/12/09 14:00:26;;;;;;;119.93;42.87;;;;;;;;;;5047417;28;20189;-62
2021/12/09 14:03:12;;;;;;;152.67;55.90;;;;;;;;;;5032036;28;20220;-63
2021/12/09 14:06:00;;;;;;;132.47;49.27;;;;;;;;;;5031492;28;20674;-63
2021/12/09 14:08:34;;;;;;;110.10;41.63;;;;;;;;;;5020422;28;20331;-64
2021/12/09 14:11:14;;;;;;;62.10;28.47;;;;;;;;;;5019924;28;20270;-67
2021/12/09 14:13:47;;;;;;;53.13;24.10;;;;;;;;;;5032340;28;20297;-64
2021/12/09 14:21:48;;;;;;;44.83;21.90;;;;;;;;;;5032109;28;20595;-63
2021/12/09 14:24:23;;;;;;;40.20;20.93;;;;;;;;;;5031036;28;20232;-64
2021/12/09 14:26:56;;;;;;;82.80;32.90;;;;;;;;;;5032429;28;20208;-63
2021/12/09 14:29:26;;;;;;;72.57;30.33;;;;;;;;;;5040385;28;20278;-64
2021/12/09 14:31:55;;;;;;;52.50;23.97;;;;;;;;;;5032330;28;20212;-64
2021/12/09 14:34:25;;;;;;;116.77;40.23;;;;;;;;;;5047476;28;20219;-63
2021/12/09 14:36:52;;;;;;;62.07;28.07;;;;;;;;;;5032322;28;20220;-62
2021/12/09 14:39:22;;;;;;;99.20;38.77;;;;;;;;;;5029370;28;20267;-65
2021/12/09 14:42:05;;;;;;;44.07;21.67;;;;;;;;;;5025818;28;20232;-64
2021/12/09 14:44:33;;;;;;;49.40;22.33;;;;;;;;;;5032001;28;20324;-63
2021/12/09 14:47:06;;;;;;;47.73;21.63;;;;;;;;;;5030290;28;20228;-65
2021/12/09 14:49:42;;;;;;;48.10;21.17;;;;;;;;;;5025030;28;20224;-62
2021/12/09 14:52:10;;;;;;;50.67;21.93;;;;;;;;;;5028622;28;20244;-62
2021/12/09 14:54:37;;;;;;;50.87;21.97;;;;;;;;;;5026117;28;20242;-64
2021/12/09 14:57:08;;;;;;;51.47;21.10;;;;;;;;;;5018891;28;20232;-63
2021/12/09 14:59:37;;;;;;;51.40;22.43;;;;;;;;;;5028732;28;20220;-64
2021/12/09 15:02:12;;;;;;;45.70;20.70;;;;;;;;;;5031981;28;20679;-64
2021/12/09 15:04:50;;;;;;;52.13;20.70;;;;;;;;;;5032039;28;20271;-62
2021/12/09 15:09:59;;;;;;;45.63;20.23;;;;;;;;;;5031651;28;20225;-62
2021/12/09 15:12:33;;;;;;;53.63;23.93;;;;;;;;;;5032183;28;20563;-61
2021/12/09 15:15:02;;;;;;;52.83;24.60;;;;;;;;;;5031740;28;20236;-62
2021/12/09 15:17:30;;;;;;;43.10;20.43;;;;;;;;;;5031261;28;20228;-62
2021/12/09 15:20:07;;;;;;;53.77;25.20;;;;;;;;;;5035747;28;20282;-62
2021/12/09 15:22:52;;;;;;;60.30;25.23;;;;;;;;;;5033881;28;20383;-62
2021/12/09 15:25:20;;;;;;;67.30;28.07;;;;;;;;;;5028668;28;20231;-63
2021/12/09 15:27:58;;;;;;;60.60;24.37;;;;;;;;;;5035897;28;20304;-63
2021/12/09 15:30:58;;;;;;;71.47;30.57;;;;;;;;;;5035024;28;20311;-63
2021/12/09 15:33:37;;;;;;;69.00;28.73;;;;;;;;;;5034208;28;20244;-62
2021/12/09 15:36:08;;;;;;;60.43;25.90;;;;;;;;;;5035398;28;20682;-64
2021/12/09 15:38:39;;;;;;;65.60;26.27;;;;;;;;;;5024852;28;20675;-63
2021/12/09 15:41:08;;;;;;;52.93;22.40;;;;;;;;;;5034819;28;20582;-63
2021/12/09 15:43:35;;;;;;;59.40;24.17;;;;;;;;;;5034998;28;20228;-62
2021/12/09 15:46:08;;;;;;;49.07;19.27;;;;;;;;;;5035108;28;20235;-65
2021/12/09 15:48:38;;;;;;;46.97;21.63;;;;;;;;;;5035640;28;20221;-64
2021/12/09 15:51:16;;;;;;;59.20;23.70;;;;;;;;;;5029361;28;20264;-65
2021/12/09 15:53:50;;;;;;;67.43;25.43;;;;;;;;;;5039691;28;20230;-64
2021/12/09 15:56:25;;;;;;;59.97;24.57;;;;;;;;;;5024364;28;20220;-64
2021/12/09 15:58:52;;;;;;;61.80;25.27;;;;;;;;;;5032203;28;20220;-65
2021/12/09 16:01:23;;;;;;;57.80;23.07;;;;;;;;;;5029430;28;20226;-63